Portada
METAR-TAF:

METAR-TAF

Aeroports :

Kajaani, Finlàndia

latitud: 64-17N, longitud: 027-41E, altitud: 143 m

Observació

L'informe es va fer fa 26 minuts, a les 12:50 UTC
Vent 13 kt del Oest
Temperatura -2°C
Humitat 93%
Pressió 970 hPa
Visibilitat 10 km o més
Cel cobert a una alçada de 500 ft

METAR: EFKI 091250Z AUTO 26013KT 9999 OVC005 M02/M03 Q0970

Hora: 15:16 (13:16 UTC)

Pronòstic

L'informe es va fer fa 1 hora i 51 minuts, a les 11:25 UTC
Pronòstic vàlid del 09 a les 12 UTC al 09 a les 21 UTC
Vent 12 kt del Oest
Visibilitat: 8000 m
Cel cobert a una alçada de 600 ft
neu
Temporalment
l' 09 a les 12 UTC al 09 a les 18 UTC
Visibilitat: 4000 m
Cel ennuvolat a una alçada de 400 ft
neu
Probabilitat 40%
l' 09 a les 12 UTC al 09 a les 18 UTC
Visibilitat: 2000 m
(lleu) gebradora, plugim

TAF: EFKI 091125Z 0912/0921 26012KT 8000 -SN OVC006 TEMPO 0912/0918 4000 -SN BKN004 PROB40 0912/0918 2000 -FZDZ

Observacions i pronòstics meteorològics de més de 4000 aeroports (METAR i TAF).

Les estacions disponibles són els punts grocs i vermells al mapa.

Posi el ratolí al punt desitjat per veure el nom de l'estació.

Feu clic per veure les observacions i els pronòstics meteorològics.

Per canviar el mapa: feu clic els botons verds amb una creu de color negre per apropar; al botó verd amb un guió per allunyar la imatge; o en les fletxes verdes per a mapes adjacents.


METAR-TAF: